createdAt,value
2018-10-11T00:00:53.078Z,28.30
2018-10-11T00:01:52.918Z,29.80
2018-10-11T00:02:52.985Z,29.00
2018-10-11T00:03:52.842Z,29.90
2018-10-11T00:04:52.909Z,27.50
2018-10-11T00:05:52.790Z,30.80
2018-10-11T00:06:52.764Z,28.30
2018-10-11T00:07:52.816Z,30.50
2018-10-11T00:08:52.718Z,29.40
2018-10-11T00:09:52.688Z,29.20
2018-10-11T00:10:52.731Z,30.10
2018-10-11T00:11:52.655Z,30.00
2018-10-11T00:12:52.749Z,33.40
2018-10-11T00:13:52.583Z,32.30
2018-10-11T00:14:52.658Z,34.60
2018-10-11T00:15:52.541Z,34.00
2018-10-11T00:16:52.561Z,36.60
2018-10-11T00:17:52.483Z,35.80
2018-10-11T00:18:54.549Z,35.20
2018-10-11T00:19:52.436Z,33.00
2018-10-11T00:20:52.491Z,32.80
2018-10-11T00:21:52.371Z,32.00
2018-10-11T00:22:53.426Z,29.80
2018-10-11T00:23:52.323Z,30.10
2018-10-11T00:24:52.432Z,33.20
2018-10-11T00:25:52.271Z,32.10
2018-10-11T00:26:52.337Z,34.20
2018-10-11T00:27:52.243Z,37.40
2018-10-11T00:28:52.353Z,33.60
2018-10-11T00:29:52.166Z,32.60
2018-10-11T00:30:52.307Z,32.90
2018-10-11T00:31:52.122Z,30.50
2018-10-11T00:32:53.191Z,30.50
2018-10-11T00:33:52.088Z,34.60
2018-10-11T00:34:53.109Z,30.90
2018-10-11T00:35:52.009Z,36.50
2018-10-11T00:36:51.988Z,36.40
2018-10-11T00:37:52.212Z,34.00
2018-10-11T00:38:51.935Z,38.80
2018-10-11T00:39:52.009Z,38.40
2018-10-11T00:40:51.873Z,40.40
2018-10-11T00:41:51.850Z,37.20
2018-10-11T00:42:51.830Z,36.10
2018-10-11T00:43:52.959Z,35.10
2018-10-11T00:44:51.775Z,34.70
2018-10-11T00:45:51.854Z,32.30
2018-10-11T00:46:51.717Z,33.10
2018-10-11T00:47:51.703Z,31.10
2018-10-11T00:48:51.671Z,33.00
2018-10-11T00:49:51.776Z,32.90
2018-10-11T00:50:51.630Z,34.90
2018-10-11T00:51:51.682Z,34.30
2018-10-11T00:52:51.570Z,34.30
2018-10-11T00:53:51.537Z,35.20
2018-10-11T00:54:51.592Z,36.40
2018-10-11T00:55:51.489Z,39.30
2018-10-11T00:56:51.458Z,36.80
2018-10-11T00:57:51.512Z,36.70
2018-10-11T00:58:51.409Z,35.30
2018-10-11T00:59:51.384Z,38.60
2018-10-11T01:00:51.355Z,36.70
2018-10-11T01:01:52.448Z,37.30
2018-10-11T01:02:51.307Z,35.80
2018-10-11T01:03:51.337Z,35.30
2018-10-11T01:04:51.248Z,34.20
2018-10-11T01:05:52.383Z,34.00
2018-10-11T01:06:51.183Z,32.20
2018-10-11T01:07:51.151Z,34.90
2018-10-11T01:08:51.260Z,34.30
2018-10-11T01:09:51.117Z,35.40
2018-10-11T01:10:51.079Z,34.70
2018-10-11T01:11:51.181Z,35.20
2018-10-11T01:12:51.018Z,32.00
2018-10-11T01:13:51.080Z,33.50
2018-10-11T01:14:50.974Z,37.90
2018-10-11T01:15:51.100Z,34.90
2018-10-11T01:16:50.916Z,36.20
2018-10-11T01:17:50.909Z,41.30
2018-10-11T01:18:51.005Z,37.50
2018-10-11T01:19:50.835Z,37.70
2018-10-11T01:20:50.817Z,37.20
2018-10-11T01:21:50.789Z,38.30
2018-10-11T01:22:50.763Z,35.70
2018-10-11T01:23:50.829Z,35.90
2018-10-11T01:24:50.707Z,35.90
2018-10-11T01:25:50.680Z,39.80
2018-10-11T01:26:50.657Z,37.40
2018-10-11T01:27:50.623Z,40.90
2018-10-11T01:28:50.599Z,38.00
2018-10-11T01:29:50.650Z,37.50
2018-10-11T01:30:50.549Z,38.50
2018-10-11T01:31:50.520Z,45.40
2018-10-11T01:32:50.494Z,42.30
2018-10-11T01:33:50.463Z,38.70
2018-10-11T01:34:50.446Z,34.20
2018-10-11T01:35:50.418Z,34.20
2018-10-11T01:36:50.380Z,33.10
2018-10-11T01:37:50.357Z,33.20
2018-10-11T01:38:50.509Z,35.40
2018-10-11T01:39:50.442Z,34.70
2018-10-11T01:40:50.284Z,34.10
2018-10-11T01:41:50.278Z,34.90
2018-10-11T01:42:50.349Z,36.80
2018-10-11T01:43:50.206Z,36.50
2018-10-11T01:44:50.266Z,36.60
2018-10-11T01:45:50.147Z,34.80
2018-10-11T01:46:50.132Z,33.40
2018-10-11T01:47:50.103Z,36.80
2018-10-11T01:48:50.070Z,36.80
2018-10-11T01:49:50.041Z,32.50
2018-10-11T01:50:50.029Z,34.20
2018-10-11T01:51:49.991Z,30.80
2018-10-11T01:52:49.959Z,32.60
2018-10-11T01:53:49.943Z,30.10
2018-10-11T01:54:49.913Z,35.10
2018-10-11T01:55:49.890Z,33.20
2018-10-11T01:56:49.903Z,30.50
2018-10-11T01:57:49.836Z,34.50
2018-10-11T01:58:49.807Z,33.70
2018-10-11T01:59:49.789Z,33.80
2018-10-11T02:00:49.858Z,34.60
2018-10-11T02:01:49.728Z,35.20
2018-10-11T02:02:49.709Z,34.00
2018-10-11T02:03:49.781Z,32.40
2018-10-11T02:04:49.648Z,30.90
2018-10-11T02:05:49.625Z,34.30
2018-10-11T02:06:49.601Z,36.90
2018-10-11T02:07:49.569Z,35.90
2018-10-11T02:08:49.551Z,38.80
2018-10-11T02:09:49.515Z,39.40
2018-10-11T02:10:49.491Z,37.60
2018-10-11T02:11:49.471Z,38.40
2018-10-11T02:12:49.438Z,34.90
2018-10-11T02:13:49.407Z,38.20
2018-10-11T02:14:49.389Z,40.50
2018-10-11T02:15:49.356Z,39.60
2018-10-11T02:16:49.333Z,37.60
2018-10-11T02:17:49.306Z,44.70
2018-10-11T02:18:49.281Z,40.50
2018-10-11T02:19:49.254Z,43.10
2018-10-11T02:20:49.224Z,40.30
2018-10-11T02:21:49.196Z,46.80
2018-10-11T02:22:49.304Z,50.40
2018-10-11T02:23:49.149Z,43.00
2018-10-11T02:24:49.209Z,46.80
2018-10-11T02:25:49.087Z,44.50
2018-10-11T02:26:49.224Z,45.70
2018-10-11T02:27:49.060Z,52.00
2018-10-11T02:28:49.137Z,46.90
2018-10-11T02:29:48.986Z,43.40
2018-10-11T02:30:49.042Z,43.30
2018-10-11T02:31:48.949Z,46.40
2018-10-11T02:32:49.059Z,49.70
2018-10-11T02:33:48.878Z,47.40
2018-10-11T02:34:48.971Z,49.10
2018-10-11T02:35:48.827Z,47.40
2018-10-11T02:36:48.984Z,47.50
2018-10-11T02:37:48.774Z,47.70
2018-10-11T02:38:48.893Z,46.70
2018-10-11T02:39:48.748Z,45.70
2018-10-11T02:40:48.806Z,48.30
2018-10-11T02:41:48.678Z,45.30
2018-10-11T02:42:48.819Z,45.60
2018-10-11T02:43:48.619Z,45.70
2018-10-11T02:44:48.734Z,44.10
2018-10-11T02:45:48.575Z,47.00
2018-10-11T02:46:48.752Z,47.00
2018-10-11T02:47:48.508Z,45.00
2018-10-11T02:48:48.652Z,49.20
2018-10-11T02:49:48.455Z,45.60
2018-10-11T02:50:48.574Z,45.70
2018-10-11T02:51:48.406Z,46.20
2018-10-11T02:52:48.482Z,42.10
2018-10-11T02:53:48.350Z,42.30
2018-10-11T02:54:48.497Z,45.80
2018-10-11T02:55:48.297Z,44.20
2018-10-11T02:56:48.403Z,42.40
2018-10-11T02:57:48.251Z,41.60
2018-10-11T02:58:48.311Z,43.20
2018-10-11T02:59:48.184Z,42.60
2018-10-11T03:00:48.331Z,42.20
2018-10-11T03:01:48.139Z,40.80
2018-10-11T03:02:48.276Z,42.60
2018-10-11T03:03:48.081Z,39.50
2018-10-11T03:04:48.253Z,42.60
2018-10-11T03:05:48.038Z,40.30
2018-10-11T03:06:48.163Z,43.40
2018-10-11T03:07:47.982Z,42.10
2018-10-11T03:08:48.081Z,42.50
2018-10-11T03:09:47.925Z,38.50
2018-10-11T03:10:48.092Z,41.40
2018-10-11T03:11:47.881Z,39.50
2018-10-11T03:12:48.000Z,39.30
2018-10-11T03:13:47.840Z,43.10
2018-10-11T03:14:47.922Z,38.70
2018-10-11T03:15:47.772Z,42.30
2018-10-11T03:16:47.928Z,44.00
2018-10-11T03:17:47.719Z,40.20
2018-10-11T03:18:47.837Z,43.40
2018-10-11T03:19:47.668Z,42.00
2018-10-11T03:20:47.747Z,39.70
2018-10-11T03:21:47.612Z,41.10
2018-10-11T03:22:47.766Z,39.80
2018-10-11T03:23:47.565Z,41.60
2018-10-11T03:24:47.674Z,42.30
2018-10-11T03:25:47.504Z,42.80
2018-10-11T03:26:47.602Z,42.10
2018-10-11T03:27:47.450Z,41.20
2018-10-11T03:28:47.607Z,47.50
2018-10-11T03:29:47.403Z,43.70
2018-10-11T03:30:47.497Z,44.00
2018-10-11T03:31:47.349Z,43.00
2018-10-11T03:32:47.522Z,44.90
2018-10-11T03:33:47.294Z,45.40
2018-10-11T03:34:48.432Z,40.70
2018-10-11T03:35:47.243Z,40.10
2018-10-11T03:36:53.271Z,41.50
2018-10-11T03:37:47.197Z,39.50
2018-10-11T03:38:47.324Z,39.10
2018-10-11T03:39:47.145Z,41.40
2018-10-11T03:40:47.209Z,43.20
2018-10-11T03:41:47.082Z,43.70
2018-10-11T03:42:47.129Z,44.10
2018-10-11T03:43:47.030Z,47.10
2018-10-11T03:44:47.138Z,43.60
2018-10-11T03:45:46.992Z,44.40
2018-10-11T03:46:47.058Z,41.90
2018-10-11T03:47:46.926Z,42.10
2018-10-11T03:48:46.970Z,44.30
2018-10-11T03:49:46.873Z,41.40
2018-10-11T03:50:46.973Z,53.20
2018-10-11T03:51:46.831Z,53.60
2018-10-11T03:52:46.888Z,47.50
2018-10-11T03:53:46.768Z,53.20
2018-10-11T03:54:46.801Z,49.50
2018-10-11T03:55:46.715Z,47.20
2018-10-11T03:56:46.812Z,43.40
2018-10-11T03:57:46.668Z,51.70
2018-10-11T03:58:46.724Z,52.60
2018-10-11T03:59:46.652Z,56.20
2018-10-11T04:00:46.735Z,56.70
2018-10-11T04:01:46.563Z,57.10
2018-10-11T04:02:46.646Z,54.80
2018-10-11T04:03:46.506Z,57.20
2018-10-11T04:04:46.561Z,54.40
2018-10-11T04:05:46.457Z,52.40
2018-10-11T04:06:46.566Z,54.60
2018-10-11T04:07:46.402Z,53.70
2018-10-11T04:08:46.477Z,53.80
2018-10-11T04:09:46.355Z,57.10
2018-10-11T04:10:46.379Z,59.50
2018-10-11T04:11:46.323Z,63.40
2018-10-11T04:12:46.400Z,60.90
2018-10-11T04:13:46.253Z,52.80
2018-10-11T04:14:46.304Z,58.00
2018-10-11T04:15:46.190Z,58.60
2018-10-11T04:16:46.219Z,60.70
2018-10-11T04:17:46.140Z,61.30
2018-10-11T04:18:46.237Z,59.50
2018-10-11T04:19:46.081Z,59.20
2018-10-11T04:20:46.143Z,61.30
2018-10-11T04:21:46.042Z,58.50
2018-10-11T04:22:47.074Z,56.30
2018-10-11T04:23:45.977Z,64.90
2018-10-11T04:24:46.078Z,60.60
2018-10-11T04:25:45.929Z,60.60
2018-10-11T04:26:45.978Z,55.00
2018-10-11T04:27:45.883Z,56.90
2018-10-11T04:28:45.990Z,61.60
2018-10-11T04:29:45.822Z,54.00
2018-10-11T04:30:45.919Z,58.90
2018-10-11T04:31:45.774Z,58.00
2018-10-11T04:32:45.812Z,56.40
2018-10-11T04:33:45.727Z,54.70
2018-10-11T04:34:45.828Z,59.30
2018-10-11T04:35:45.669Z,54.20
2018-10-11T04:36:45.739Z,54.40
2018-10-11T04:37:45.625Z,53.50
2018-10-11T04:38:45.648Z,53.40
2018-10-11T04:39:45.564Z,46.20
2018-10-11T04:40:45.667Z,50.20
2018-10-11T04:41:45.513Z,52.00
2018-10-11T04:42:45.636Z,49.20
2018-10-11T04:43:45.464Z,55.50
2018-10-11T04:44:45.589Z,65.80
2018-10-11T04:45:45.406Z,60.30
2018-10-11T04:46:45.506Z,61.60
2018-10-11T04:47:45.357Z,57.20
2018-10-11T04:48:45.438Z,59.20
2018-10-11T04:49:45.305Z,55.60
2018-10-11T04:50:45.425Z,56.00
2018-10-11T04:51:45.253Z,54.70
2018-10-11T04:52:45.349Z,63.20
2018-10-11T04:53:45.201Z,62.40
2018-10-11T04:54:45.250Z,61.00
2018-10-11T04:55:45.158Z,64.80
2018-10-11T04:56:45.264Z,63.10
2018-10-11T04:57:45.091Z,63.80
2018-10-11T04:58:45.170Z,65.80
2018-10-11T04:59:45.046Z,63.90
2018-10-11T05:00:45.091Z,55.80
2018-10-11T05:01:44.988Z,51.10
2018-10-11T05:02:45.098Z,76.90
2018-10-11T05:03:44.937Z,64.90
2018-10-11T05:04:45.013Z,60.40
2018-10-11T05:05:44.887Z,60.20
2018-10-11T05:06:45.043Z,53.40
2018-10-11T05:07:44.842Z,55.30
2018-10-11T05:08:44.939Z,52.10
2018-10-11T05:09:44.811Z,46.50
2018-10-11T05:10:44.846Z,46.00
2018-10-11T05:11:44.747Z,52.20
2018-10-11T05:12:44.861Z,46.00
2018-10-11T05:13:44.683Z,51.40
2018-10-11T05:14:44.770Z,47.90
2018-10-11T05:15:44.659Z,49.80
2018-10-11T05:16:44.697Z,53.80
2018-10-11T05:17:44.578Z,56.00
2018-10-11T05:18:44.698Z,61.60
2018-10-11T05:19:44.521Z,60.10
2018-10-11T05:20:44.615Z,58.10
2018-10-11T05:21:44.477Z,58.60
2018-10-11T05:22:44.511Z,56.60
2018-10-11T05:23:44.427Z,54.70
2018-10-11T05:24:44.532Z,57.90
2018-10-11T05:25:44.372Z,62.30
2018-10-11T05:26:44.442Z,59.70
2018-10-11T05:27:44.325Z,60.10
2018-10-11T05:28:44.457Z,54.70
2018-10-11T05:29:44.288Z,67.50
2018-10-11T05:30:44.333Z,58.00
2018-10-11T05:31:44.214Z,58.80
2018-10-11T05:32:44.239Z,58.50
2018-10-11T05:33:44.218Z,57.90
2018-10-11T05:34:44.258Z,53.70
2018-10-11T05:35:44.103Z,56.60
2018-10-11T05:36:44.169Z,56.80
2018-10-11T05:37:44.161Z,63.00
2018-10-11T05:38:44.152Z,68.00
2018-10-11T05:39:44.033Z,59.00
2018-10-11T05:40:44.192Z,56.70
2018-10-11T05:41:44.017Z,56.60
2018-10-11T05:42:45.027Z,62.30
2018-10-11T05:43:43.971Z,68.90
2018-10-11T05:44:43.920Z,63.90
2018-10-11T05:45:43.847Z,59.90
2018-10-11T05:46:43.938Z,56.80
2018-10-11T05:47:43.804Z,59.30
2018-10-11T05:48:43.853Z,58.50
2018-10-11T05:49:43.747Z,51.20
2018-10-11T05:50:44.776Z,50.60
2018-10-11T05:51:43.681Z,51.60
2018-10-11T05:52:43.817Z,59.90
2018-10-11T05:53:43.640Z,55.80
2018-10-11T05:54:43.732Z,50.00
2018-10-11T05:55:43.586Z,52.70
2018-10-11T05:56:43.730Z,55.80
2018-10-11T05:57:43.522Z,49.30
2018-10-11T05:58:43.604Z,49.20
2018-10-11T05:59:43.480Z,57.90
2018-10-11T06:00:43.510Z,56.70
2018-10-11T06:01:43.418Z,54.20
2018-10-11T06:02:43.498Z,50.60
2018-10-11T06:03:43.363Z,53.80
2018-10-11T06:04:43.403Z,47.50
2018-10-11T06:05:43.315Z,43.50
2018-10-11T06:06:43.393Z,44.10
2018-10-11T06:07:43.304Z,46.30
2018-10-11T06:08:43.329Z,48.00
2018-10-11T06:09:43.214Z,47.50
2018-10-11T06:10:43.231Z,51.50
2018-10-11T06:11:43.158Z,54.50
2018-10-11T06:12:43.149Z,49.20
2018-10-11T06:13:43.103Z,55.20
2018-10-11T06:14:43.160Z,49.30
2018-10-11T06:15:43.044Z,44.70
2018-10-11T06:16:43.117Z,45.60
2018-10-11T06:17:43.036Z,46.40
2018-10-11T06:18:43.099Z,48.70
2018-10-11T06:19:42.949Z,40.60
2018-10-11T06:20:42.991Z,42.00
2018-10-11T06:21:42.892Z,43.00
2018-10-11T06:22:43.223Z,45.80
2018-10-11T06:23:42.843Z,41.90
2018-10-11T06:24:42.837Z,45.90
2018-10-11T06:25:42.786Z,48.50
2018-10-11T06:26:42.765Z,47.10
2018-10-11T06:27:42.736Z,46.80
2018-10-11T06:28:42.702Z,47.40
2018-10-11T06:29:42.674Z,48.10
2018-10-11T06:30:42.664Z,48.70
2018-10-11T06:31:42.635Z,49.50
2018-10-11T06:32:42.606Z,48.00
2018-10-11T06:33:42.579Z,48.70
2018-10-11T06:34:42.540Z,47.90
2018-10-11T06:35:42.568Z,45.60
2018-10-11T06:36:42.621Z,45.60
2018-10-11T06:37:42.465Z,44.50
2018-10-11T06:38:42.433Z,45.20
2018-10-11T06:39:42.430Z,48.60
2018-10-11T06:40:42.387Z,47.90
2018-10-11T06:41:42.486Z,44.40
2018-10-11T06:42:42.357Z,44.20
2018-10-11T06:43:42.311Z,43.00
2018-10-11T06:44:42.293Z,48.50
2018-10-11T06:45:42.253Z,51.00
2018-10-11T06:46:42.229Z,47.00
2018-10-11T06:47:42.204Z,47.70
2018-10-11T06:48:42.173Z,52.50
2018-10-11T06:49:42.189Z,47.40
2018-10-11T06:50:42.120Z,47.30
2018-10-11T06:51:42.091Z,47.60
2018-10-11T06:52:42.072Z,48.80
2018-10-11T06:53:42.042Z,48.30
2018-10-11T06:54:42.010Z,49.40
2018-10-11T06:55:41.987Z,49.10
2018-10-11T06:56:41.960Z,51.80
2018-10-11T06:57:42.022Z,48.00
2018-10-11T06:58:41.905Z,48.20
2018-10-11T06:59:41.887Z,50.90
2018-10-11T07:00:41.857Z,47.90
2018-10-11T07:01:41.851Z,47.40
2018-10-11T07:02:41.790Z,46.20
2018-10-11T07:03:41.767Z,44.30
2018-10-11T07:04:41.736Z,44.70
2018-10-11T07:05:41.774Z,49.50
2018-10-11T07:06:41.682Z,41.60
2018-10-11T07:07:41.658Z,42.20
2018-10-11T07:08:41.632Z,43.80
2018-10-11T07:09:41.622Z,42.80
2018-10-11T07:10:41.739Z,38.80
2018-10-11T07:11:41.558Z,40.70
2018-10-11T07:12:41.634Z,40.30
2018-10-11T07:13:41.504Z,38.70
2018-10-11T07:14:41.470Z,41.70
2018-10-11T07:15:41.558Z,42.20
2018-10-11T07:16:41.421Z,41.10
2018-10-11T07:17:41.409Z,41.40
2018-10-11T07:18:41.365Z,37.70
2018-10-11T07:19:41.339Z,38.10
2018-10-11T07:20:41.376Z,38.30
2018-10-11T07:21:41.376Z,33.90
2018-10-11T07:22:41.262Z,36.70
2018-10-11T07:23:41.241Z,39.20
2018-10-11T07:24:41.212Z,37.90
2018-10-11T07:25:41.363Z,39.70
2018-10-11T07:26:41.158Z,40.60
2018-10-11T07:27:41.174Z,38.60
2018-10-11T07:28:41.127Z,34.70
2018-10-11T07:29:41.079Z,33.00
2018-10-11T07:30:41.107Z,33.70
2018-10-11T07:31:41.095Z,35.60
2018-10-11T07:32:40.998Z,33.30
2018-10-11T07:33:41.007Z,33.10
2018-10-11T07:34:41.059Z,34.00
2018-10-11T07:35:40.941Z,36.10
2018-10-11T07:36:40.883Z,32.40
2018-10-11T07:37:40.864Z,38.40
2018-10-11T07:38:40.833Z,33.00
2018-10-11T07:39:40.807Z,33.90
2018-10-11T07:40:40.968Z,34.70
2018-10-11T07:41:40.849Z,35.70
2018-10-11T07:42:40.823Z,34.40
2018-10-11T07:43:40.697Z,36.20
2018-10-11T07:44:40.680Z,34.40
2018-10-11T07:45:40.676Z,34.00
2018-10-11T07:46:40.623Z,34.60
2018-10-11T07:47:40.684Z,33.00
2018-10-11T07:48:40.558Z,34.60
2018-10-11T07:49:40.695Z,34.40
2018-10-11T07:50:40.520Z,34.50
2018-10-11T07:51:40.505Z,32.30
2018-10-11T07:52:40.502Z,36.20
2018-10-11T07:53:40.440Z,35.60
2018-10-11T07:54:40.413Z,31.60
2018-10-11T07:55:40.440Z,35.50
2018-10-11T07:56:40.348Z,33.40
2018-10-11T07:57:40.351Z,36.00
2018-10-11T07:58:40.296Z,34.10
2018-10-11T07:59:40.351Z,29.30
2018-10-11T08:00:40.238Z,34.10
2018-10-11T08:01:40.291Z,34.30
2018-10-11T08:02:40.190Z,32.30
2018-10-11T08:03:40.179Z,32.20
2018-10-11T08:04:40.153Z,29.60
2018-10-11T08:05:40.187Z,33.40
2018-10-11T08:06:40.079Z,30.00
2018-10-11T08:07:40.169Z,30.90
2018-10-11T08:08:40.043Z,31.90
2018-10-11T08:09:40.005Z,31.40
2018-10-11T08:10:40.143Z,31.40
2018-10-11T08:11:40.144Z,32.90
2018-10-11T08:12:39.921Z,32.90
2018-10-11T08:13:40.003Z,29.40
2018-10-11T08:14:39.884Z,29.20
2018-10-11T08:15:39.944Z,31.80
2018-10-11T08:16:39.914Z,32.70
2018-10-11T08:17:40.163Z,30.20
2018-10-11T08:18:39.842Z,29.40
2018-10-11T08:19:39.839Z,30.80
2018-10-11T08:20:39.772Z,29.50
2018-10-11T08:21:39.813Z,29.40
2018-10-11T08:22:39.650Z,31.10
2018-10-11T08:23:39.691Z,29.60
2018-10-11T08:24:39.632Z,29.40
2018-10-11T08:25:39.842Z,25.00
2018-10-11T08:26:39.601Z,26.30
2018-10-11T08:27:39.618Z,26.80
2018-10-11T08:28:39.548Z,24.50
2018-10-11T08:29:39.528Z,29.50
2018-10-11T08:30:39.451Z,22.60
2018-10-11T08:31:39.448Z,23.40
2018-10-11T08:32:39.710Z,23.80
2018-10-11T08:33:39.452Z,23.70
2018-10-11T08:34:39.345Z,25.80
2018-10-11T08:35:39.319Z,28.40
2018-10-11T08:36:39.274Z,26.80
2018-10-11T08:37:39.334Z,23.60
2018-10-11T08:38:39.287Z,33.00
2018-10-11T08:39:39.284Z,30.70
2018-10-11T08:40:39.161Z,27.60
2018-10-11T08:41:39.210Z,31.70
2018-10-11T08:42:39.115Z,25.90
2018-10-11T08:43:39.236Z,24.80
2018-10-11T08:44:39.053Z,27.50
2018-10-11T08:45:39.116Z,26.40
2018-10-11T08:46:39.008Z,26.30
2018-10-11T08:47:39.028Z,28.10
2018-10-11T08:48:38.955Z,28.60
2018-10-11T08:49:39.038Z,28.70
2018-10-11T08:50:38.926Z,28.50
2018-10-11T08:51:38.955Z,27.30
2018-10-11T08:52:38.843Z,23.80
2018-10-11T08:53:38.904Z,25.10
2018-10-11T08:54:38.787Z,23.30
2018-10-11T08:55:38.987Z,25.50
2018-10-11T08:56:38.741Z,21.50
2018-10-11T08:57:38.800Z,22.80
2018-10-11T08:58:38.695Z,23.20
2018-10-11T08:59:38.738Z,26.00
2018-10-11T09:00:38.644Z,23.30
2018-10-11T09:01:38.700Z,19.90
2018-10-11T09:02:38.586Z,20.50
2018-10-11T09:03:39.776Z,24.20
2018-10-11T09:04:38.528Z,22.20
2018-10-11T09:05:38.525Z,21.60
2018-10-11T09:06:38.472Z,19.70
2018-10-11T09:07:38.545Z,23.00
2018-10-11T09:08:38.423Z,20.60
2018-10-11T09:09:38.524Z,20.50
2018-10-11T09:10:38.695Z,22.90
2018-10-11T09:11:40.405Z,20.90
2018-10-11T09:12:38.314Z,19.50
2018-10-11T09:13:38.385Z,21.00
2018-10-11T09:14:38.260Z,22.10
2018-10-11T09:15:38.286Z,21.40
2018-10-11T09:16:38.228Z,20.20
2018-10-11T09:17:38.307Z,19.50
2018-10-11T09:18:38.151Z,22.00
2018-10-11T09:19:38.203Z,20.60
2018-10-11T09:20:38.107Z,18.40
2018-10-11T09:21:38.121Z,18.10
2018-10-11T09:22:38.063Z,19.00
2018-10-11T09:23:38.125Z,21.60
2018-10-11T09:24:38.008Z,19.60
2018-10-11T09:25:38.050Z,17.70
2018-10-11T09:26:37.953Z,17.80
2018-10-11T09:27:37.951Z,17.10
2018-10-11T09:28:37.895Z,20.70
2018-10-11T09:29:37.956Z,16.60
2018-10-11T09:30:37.846Z,17.60
2018-10-11T09:31:37.875Z,16.90
2018-10-11T09:32:37.786Z,17.30
2018-10-11T09:33:37.794Z,16.30
2018-10-11T09:34:37.744Z,16.40
2018-10-11T09:35:37.797Z,17.80
2018-10-11T09:36:37.807Z,16.10
2018-10-11T09:37:37.710Z,18.00
2018-10-11T09:38:37.629Z,16.70
2018-10-11T09:39:37.614Z,18.40
2018-10-11T09:40:37.593Z,18.60
2018-10-11T09:41:37.630Z,15.80
2018-10-11T09:42:37.533Z,16.00
2018-10-11T09:43:37.541Z,17.40
2018-10-11T09:44:37.471Z,16.50
2018-10-11T09:45:37.554Z,14.70
2018-10-11T09:46:37.413Z,17.70
2018-10-11T09:47:37.467Z,16.60
2018-10-11T09:48:37.372Z,24.30
2018-10-11T09:49:37.375Z,15.70
2018-10-11T09:50:37.317Z,19.40
2018-10-11T09:51:38.312Z,15.70
2018-10-11T09:52:37.254Z,16.10
2018-10-11T09:53:37.296Z,16.50
2018-10-11T09:54:37.228Z,18.50
2018-10-11T09:55:37.211Z,18.20
2018-10-11T09:56:37.159Z,15.80
2018-10-11T09:57:37.228Z,16.40
2018-10-11T09:58:37.102Z,16.70
2018-10-11T09:59:37.141Z,15.70
2018-10-11T10:00:37.060Z,16.00
2018-10-11T10:01:37.040Z,14.40
2018-10-11T10:02:36.995Z,16.50
2018-10-11T10:03:37.071Z,19.40
2018-10-11T10:04:36.953Z,15.10
2018-10-11T10:05:39.024Z,15.30
2018-10-11T10:06:36.892Z,21.50
2018-10-11T10:07:37.906Z,15.10
2018-10-11T10:08:36.854Z,18.80
2018-10-11T10:09:36.895Z,16.40
2018-10-11T10:10:36.799Z,17.50
2018-10-11T10:11:36.817Z,17.90
2018-10-11T10:12:36.743Z,17.60
2018-10-11T10:13:36.813Z,18.70
2018-10-11T10:14:36.689Z,18.90
2018-10-11T10:15:36.796Z,18.00
2018-10-11T10:16:36.626Z,19.70
2018-10-11T10:17:36.634Z,18.20
2018-10-11T10:18:36.585Z,14.90
2018-10-11T10:19:36.652Z,18.30
2018-10-11T10:20:36.530Z,15.50
2018-10-11T10:21:36.592Z,15.00
2018-10-11T10:22:36.474Z,15.90
2018-10-11T10:23:36.449Z,16.10
2018-10-11T10:24:36.727Z,17.30
2018-10-11T10:25:36.717Z,16.70
2018-10-11T10:26:36.413Z,15.60
2018-10-11T10:27:36.395Z,14.80
2018-10-11T10:28:36.317Z,18.60
2018-10-11T10:29:36.303Z,17.80
2018-10-11T10:30:36.264Z,14.60
2018-10-11T10:31:36.313Z,17.60
2018-10-11T10:32:36.210Z,15.70
2018-10-11T10:33:36.227Z,14.20
2018-10-11T10:34:36.167Z,14.90
2018-10-11T10:35:36.239Z,18.20
2018-10-11T10:36:36.102Z,16.90
2018-10-11T10:37:36.159Z,15.70
2018-10-11T10:38:36.054Z,16.10
2018-10-11T10:39:36.072Z,16.30
2018-10-11T10:40:36.007Z,14.40
2018-10-11T10:41:36.074Z,16.00
2018-10-11T10:42:35.949Z,17.40
2018-10-11T10:43:35.985Z,15.80
2018-10-11T10:44:35.893Z,16.20
2018-10-11T10:45:35.890Z,16.40
2018-10-11T10:46:35.853Z,13.80
2018-10-11T10:47:35.910Z,15.40
2018-10-11T10:48:35.791Z,16.40
2018-10-11T10:49:35.834Z,17.80
2018-10-11T10:50:35.759Z,13.90
2018-10-11T10:51:35.842Z,16.70
2018-10-11T10:52:35.711Z,15.30
2018-10-11T10:53:35.752Z,14.70
2018-10-11T10:54:35.673Z,15.70
2018-10-11T10:55:35.653Z,13.80
2018-10-11T10:56:35.607Z,15.20
2018-10-11T10:57:35.670Z,15.30
2018-10-11T10:58:35.534Z,14.30
2018-10-11T10:59:35.579Z,13.70
2018-10-11T11:00:35.483Z,14.50
2018-10-11T11:01:35.490Z,17.10
2018-10-11T11:02:35.433Z,14.00
2018-10-11T11:03:35.508Z,15.80
2018-10-11T11:04:35.382Z,13.10
2018-10-11T11:05:35.418Z,12.80
2018-10-11T11:06:35.327Z,15.90
2018-10-11T11:07:35.420Z,15.60
2018-10-11T11:08:35.289Z,13.50
2018-10-11T11:09:35.351Z,13.60
2018-10-11T11:10:35.238Z,13.40
2018-10-11T11:11:35.244Z,13.80
2018-10-11T11:12:35.190Z,12.50
2018-10-11T11:13:35.260Z,12.60
2018-10-11T11:14:35.135Z,12.00
2018-10-11T11:15:35.169Z,13.50
2018-10-11T11:16:35.081Z,13.70
2018-10-11T11:17:35.093Z,13.20
2018-10-11T11:18:35.037Z,13.10
2018-10-11T11:19:35.091Z,12.00
2018-10-11T11:20:34.994Z,11.70
2018-10-11T11:21:35.010Z,12.10
2018-10-11T11:22:34.920Z,11.70
2018-10-11T11:23:34.913Z,13.80
2018-10-11T11:24:34.872Z,14.20
2018-10-11T11:25:34.929Z,12.20
2018-10-11T11:26:34.841Z,13.70
2018-10-11T11:27:34.832Z,19.40
2018-10-11T11:28:34.783Z,18.30
2018-10-11T11:29:34.748Z,13.20
2018-10-11T11:30:34.799Z,12.30
2018-10-11T11:31:34.697Z,12.70
2018-10-11T11:32:34.771Z,10.60
2018-10-11T11:33:34.656Z,12.70
2018-10-11T11:34:34.677Z,12.90
2018-10-11T11:35:34.595Z,12.60
2018-10-11T11:36:34.592Z,14.70
2018-10-11T11:37:34.556Z,11.70
2018-10-11T11:38:34.517Z,12.10
2018-10-11T11:39:34.494Z,11.90
2018-10-11T11:40:34.480Z,12.80
2018-10-11T11:41:34.446Z,13.00
2018-10-11T11:42:34.413Z,12.60
2018-10-11T11:43:34.394Z,11.80
2018-10-11T11:44:34.378Z,13.90
2018-10-11T11:45:34.346Z,13.30
2018-10-11T11:46:34.327Z,13.50
2018-10-11T11:47:34.410Z,12.70
2018-10-11T11:48:34.263Z,11.80
2018-10-11T11:49:34.307Z,14.30
2018-10-11T11:50:34.320Z,11.30
2018-10-11T11:51:34.323Z,13.10
2018-10-11T11:52:34.168Z,12.00
2018-10-11T11:53:34.248Z,11.30
2018-10-11T11:54:34.143Z,10.90
2018-10-11T11:55:34.249Z,12.50
2018-10-11T11:56:34.070Z,13.40
2018-10-11T11:57:34.163Z,11.60
2018-10-11T11:58:34.017Z,11.00
2018-10-11T11:59:34.078Z,11.00
2018-10-11T12:00:33.962Z,11.70
2018-10-11T12:01:34.081Z,11.20
2018-10-11T12:02:33.946Z,14.30
2018-10-11T12:03:33.995Z,9.70
2018-10-11T12:04:33.868Z,11.60
2018-10-11T12:05:34.012Z,9.70
2018-10-11T12:06:33.829Z,10.70
2018-10-11T12:07:33.923Z,10.50
2018-10-11T12:08:33.775Z,11.10
2018-10-11T12:09:33.832Z,9.90
2018-10-11T12:10:33.919Z,8.80
2018-10-11T12:11:33.847Z,8.70
2018-10-11T12:12:33.692Z,9.50
2018-10-11T12:13:33.756Z,9.10
2018-10-11T12:14:33.621Z,12.00
2018-10-11T12:15:33.765Z,9.70
2018-10-11T12:16:33.606Z,8.50
2018-10-11T12:17:33.685Z,7.40
2018-10-11T12:18:33.518Z,9.60
2018-10-11T12:19:33.530Z,9.10
2018-10-11T12:20:33.479Z,7.60
2018-10-11T12:21:33.609Z,8.50
2018-10-11T12:22:33.426Z,7.40
2018-10-11T12:23:33.515Z,8.80
2018-10-11T12:24:33.374Z,9.80
2018-10-11T12:25:33.624Z,11.30
2018-10-11T12:26:33.383Z,8.20
2018-10-11T12:27:33.443Z,10.40
2018-10-11T12:28:33.463Z,8.20
2018-10-11T12:29:33.360Z,7.70
2018-10-11T12:30:33.235Z,8.20
2018-10-11T12:31:33.364Z,8.80
2018-10-11T12:32:33.184Z,9.20
2018-10-11T12:33:33.280Z,7.80
2018-10-11T12:34:33.130Z,9.20
2018-10-11T12:35:33.173Z,8.10
2018-10-11T12:36:33.151Z,10.50
2018-10-11T12:37:33.201Z,8.10
2018-10-11T12:38:33.055Z,9.50
2018-10-11T12:39:33.372Z,7.20
2018-10-11T12:40:32.988Z,10.70
2018-10-11T12:41:34.042Z,9.80
2018-10-11T12:42:33.040Z,12.10
2018-10-11T12:43:33.057Z,8.00
2018-10-11T12:44:32.887Z,12.00
2018-10-11T12:45:32.933Z,9.30
2018-10-11T12:46:40.930Z,14.70
2018-10-11T12:47:32.952Z,19.30
2018-10-11T12:48:32.817Z,8.50
2018-10-11T12:49:36.459Z,7.60
2018-10-11T12:50:32.760Z,8.80
2018-10-11T12:51:32.931Z,8.60
2018-10-11T12:52:32.696Z,8.30
2018-10-11T12:53:32.675Z,7.50